sensor_id;sensor_type;location;lat;lon;timestamp;P1;durP1;ratioP1;P2;durP2;ratioP2
79728;SDS011;69218;52.132;5.418;2023-04-25T00:00:48;7.20;;;1.42;;
79728;SDS011;69218;52.132;5.418;2023-04-25T00:03:15;7.95;;;1.48;;
79728;SDS011;69218;52.132;5.418;2023-04-25T00:05:42;6.13;;;1.42;;
79728;SDS011;69218;52.132;5.418;2023-04-25T00:08:09;4.97;;;1.75;;
79728;SDS011;69218;52.132;5.418;2023-04-25T00:10:35;4.70;;;1.00;;
79728;SDS011;69218;52.132;5.418;2023-04-25T00:13:02;5.20;;;1.25;;
79728;SDS011;69218;52.132;5.418;2023-04-25T00:15:29;7.60;;;1.63;;
79728;SDS011;69218;52.132;5.418;2023-04-25T00:17:56;10.52;;;1.83;;
79728;SDS011;69218;52.132;5.418;2023-04-25T00:20:23;6.10;;;1.35;;
79728;SDS011;69218;52.132;5.418;2023-04-25T00:22:50;6.88;;;1.42;;
79728;SDS011;69218;52.132;5.418;2023-04-25T00:25:19;8.48;;;1.63;;
79728;SDS011;69218;52.132;5.418;2023-04-25T00:27:46;5.47;;;1.60;;
79728;SDS011;69218;52.132;5.418;2023-04-25T00:30:12;9.73;;;1.48;;
79728;SDS011;69218;52.132;5.418;2023-04-25T00:32:39;12.90;;;1.58;;
79728;SDS011;69218;52.132;5.418;2023-04-25T00:35:06;6.75;;;1.58;;
79728;SDS011;69218;52.132;5.418;2023-04-25T00:37:32;7.97;;;1.88;;
79728;SDS011;69218;52.132;5.418;2023-04-25T00:39:59;4.53;;;1.25;;
79728;SDS011;69218;52.132;5.418;2023-04-25T00:42:25;10.00;;;1.77;;
79728;SDS011;69218;52.132;5.418;2023-04-25T00:44:52;5.47;;;1.45;;
79728;SDS011;69218;52.132;5.418;2023-04-25T00:47:19;9.35;;;1.65;;
79728;SDS011;69218;52.132;5.418;2023-04-25T00:49:46;5.18;;;1.42;;
79728;SDS011;69218;52.132;5.418;2023-04-25T00:52:12;5.63;;;1.35;;
79728;SDS011;69218;52.132;5.418;2023-04-25T00:54:39;3.42;;;1.30;;
79728;SDS011;69218;52.132;5.418;2023-04-25T00:57:06;6.13;;;1.52;;
79728;SDS011;69218;52.132;5.418;2023-04-25T00:59:32;7.45;;;1.48;;
79728;SDS011;69218;52.132;5.418;2023-04-25T01:01:59;6.82;;;1.23;;
79728;SDS011;69218;52.132;5.418;2023-04-25T01:04:27;5.25;;;1.13;;
79728;SDS011;69218;52.132;5.418;2023-04-25T01:06:54;7.78;;;1.50;;
79728;SDS011;69218;52.132;5.418;2023-04-25T01:09:22;6.55;;;1.45;;
79728;SDS011;69218;52.132;5.418;2023-04-25T01:11:49;5.55;;;1.40;;
79728;SDS011;69218;52.132;5.418;2023-04-25T01:14:16;9.07;;;1.25;;
79728;SDS011;69218;52.132;5.418;2023-04-25T01:16:42;6.32;;;1.42;;
79728;SDS011;69218;52.132;5.418;2023-04-25T01:19:10;9.25;;;1.80;;
79728;SDS011;69218;52.132;5.418;2023-04-25T01:21:41;5.43;;;1.35;;
79728;SDS011;69218;52.132;5.418;2023-04-25T01:24:08;6.68;;;2.25;;
79728;SDS011;69218;52.132;5.418;2023-04-25T01:26:35;5.75;;;1.45;;
79728;SDS011;69218;52.132;5.418;2023-04-25T01:29:03;5.10;;;1.50;;
79728;SDS011;69218;52.132;5.418;2023-04-25T01:31:30;6.82;;;1.58;;
79728;SDS011;69218;52.132;5.418;2023-04-25T01:33:58;6.30;;;1.45;;
79728;SDS011;69218;52.132;5.418;2023-04-25T01:36:25;3.45;;;1.50;;
79728;SDS011;69218;52.132;5.418;2023-04-25T01:38:53;6.85;;;1.83;;
79728;SDS011;69218;52.132;5.418;2023-04-25T01:41:19;7.65;;;1.80;;
79728;SDS011;69218;52.132;5.418;2023-04-25T01:43:48;11.25;;;1.73;;
79728;SDS011;69218;52.132;5.418;2023-04-25T01:46:15;9.45;;;1.83;;
79728;SDS011;69218;52.132;5.418;2023-04-25T01:48:42;4.22;;;1.15;;
79728;SDS011;69218;52.132;5.418;2023-04-25T01:51:09;6.20;;;1.80;;
79728;SDS011;69218;52.132;5.418;2023-04-25T01:53:38;6.95;;;2.20;;
79728;SDS011;69218;52.132;5.418;2023-04-25T01:56:05;5.20;;;1.17;;
79728;SDS011;69218;52.132;5.418;2023-04-25T01:58:31;5.90;;;1.58;;
79728;SDS011;69218;52.132;5.418;2023-04-25T02:00:57;3.75;;;1.02;;
79728;SDS011;69218;52.132;5.418;2023-04-25T02:03:24;4.55;;;1.30;;
79728;SDS011;69218;52.132;5.418;2023-04-25T02:05:51;8.13;;;1.88;;
79728;SDS011;69218;52.132;5.418;2023-04-25T02:08:17;5.32;;;1.67;;
79728;SDS011;69218;52.132;5.418;2023-04-25T02:10:44;9.75;;;1.65;;
79728;SDS011;69218;52.132;5.418;2023-04-25T02:13:11;8.30;;;1.70;;
79728;SDS011;69218;52.132;5.418;2023-04-25T02:15:37;5.63;;;1.30;;
79728;SDS011;69218;52.132;5.418;2023-04-25T02:18:04;4.32;;;1.00;;
79728;SDS011;69218;52.132;5.418;2023-04-25T02:20:32;7.15;;;1.52;;
79728;SDS011;69218;52.132;5.418;2023-04-25T02:22:59;4.32;;;1.02;;
79728;SDS011;69218;52.132;5.418;2023-04-25T02:25:25;4.90;;;1.17;;
79728;SDS011;69218;52.132;5.418;2023-04-25T02:27:52;6.43;;;1.58;;
79728;SDS011;69218;52.132;5.418;2023-04-25T02:30:18;3.63;;;1.17;;
79728;SDS011;69218;52.132;5.418;2023-04-25T02:32:45;6.63;;;1.08;;
79728;SDS011;69218;52.132;5.418;2023-04-25T02:35:12;7.43;;;1.65;;
79728;SDS011;69218;52.132;5.418;2023-04-25T02:37:39;5.47;;;1.50;;
79728;SDS011;69218;52.132;5.418;2023-04-25T02:40:06;4.45;;;1.23;;
79728;SDS011;69218;52.132;5.418;2023-04-25T02:42:33;3.42;;;1.17;;
79728;SDS011;69218;52.132;5.418;2023-04-25T02:44:59;5.90;;;2.00;;
79728;SDS011;69218;52.132;5.418;2023-04-25T02:47:26;4.15;;;1.02;;
79728;SDS011;69218;52.132;5.418;2023-04-25T02:49:53;6.43;;;1.48;;
79728;SDS011;69218;52.132;5.418;2023-04-25T02:52:19;4.63;;;1.30;;
79728;SDS011;69218;52.132;5.418;2023-04-25T02:54:47;6.45;;;1.35;;
79728;SDS011;69218;52.132;5.418;2023-04-25T02:57:13;4.53;;;1.83;;
79728;SDS011;69218;52.132;5.418;2023-04-25T02:59:40;6.38;;;1.73;;
79728;SDS011;69218;52.132;5.418;2023-04-25T03:02:07;4.47;;;1.17;;
79728;SDS011;69218;52.132;5.418;2023-04-25T03:04:34;5.20;;;1.70;;
79728;SDS011;69218;52.132;5.418;2023-04-25T03:07:00;7.97;;;1.40;;
79728;SDS011;69218;52.132;5.418;2023-04-25T03:09:27;3.65;;;1.45;;
79728;SDS011;69218;52.132;5.418;2023-04-25T03:11:53;3.92;;;1.20;;
79728;SDS011;69218;52.132;5.418;2023-04-25T03:14:19;4.63;;;1.33;;
79728;SDS011;69218;52.132;5.418;2023-04-25T03:16:46;4.85;;;1.50;;
79728;SDS011;69218;52.132;5.418;2023-04-25T03:19:12;6.65;;;1.23;;
79728;SDS011;69218;52.132;5.418;2023-04-25T03:21:42;5.32;;;1.58;;
79728;SDS011;69218;52.132;5.418;2023-04-25T03:24:11;8.43;;;1.52;;
79728;SDS011;69218;52.132;5.418;2023-04-25T03:26:38;6.43;;;1.38;;
79728;SDS011;69218;52.132;5.418;2023-04-25T03:29:04;8.38;;;1.65;;
79728;SDS011;69218;52.132;5.418;2023-04-25T03:31:31;5.03;;;1.10;;
79728;SDS011;69218;52.132;5.418;2023-04-25T03:33:57;6.30;;;1.40;;
79728;SDS011;69218;52.132;5.418;2023-04-25T03:36:24;4.90;;;1.15;;
79728;SDS011;69218;52.132;5.418;2023-04-25T03:38:50;8.10;;;1.73;;
79728;SDS011;69218;52.132;5.418;2023-04-25T03:41:17;8.65;;;1.60;;
79728;SDS011;69218;52.132;5.418;2023-04-25T03:43:43;5.15;;;0.95;;
79728;SDS011;69218;52.132;5.418;2023-04-25T03:46:10;5.40;;;1.25;;
79728;SDS011;69218;52.132;5.418;2023-04-25T03:48:36;7.35;;;1.55;;
79728;SDS011;69218;52.132;5.418;2023-04-25T03:51:03;4.47;;;1.60;;
79728;SDS011;69218;52.132;5.418;2023-04-25T03:53:29;3.92;;;1.58;;
79728;SDS011;69218;52.132;5.418;2023-04-25T03:55:55;6.90;;;1.48;;
79728;SDS011;69218;52.132;5.418;2023-04-25T03:58:22;9.02;;;1.52;;
79728;SDS011;69218;52.132;5.418;2023-04-25T04:00:50;6.78;;;1.70;;
79728;SDS011;69218;52.132;5.418;2023-04-25T04:03:17;5.57;;;1.40;;
79728;SDS011;69218;52.132;5.418;2023-04-25T04:05:43;8.40;;;1.60;;
79728;SDS011;69218;52.132;5.418;2023-04-25T04:08:11;6.20;;;1.27;;
79728;SDS011;69218;52.132;5.418;2023-04-25T04:10:38;5.55;;;1.20;;
79728;SDS011;69218;52.132;5.418;2023-04-25T04:13:04;4.57;;;1.30;;
79728;SDS011;69218;52.132;5.418;2023-04-25T04:15:31;4.78;;;1.02;;
79728;SDS011;69218;52.132;5.418;2023-04-25T04:17:59;4.85;;;1.65;;
79728;SDS011;69218;52.132;5.418;2023-04-25T04:20:29;5.93;;;1.10;;
79728;SDS011;69218;52.132;5.418;2023-04-25T04:22:56;7.18;;;1.48;;
79728;SDS011;69218;52.132;5.418;2023-04-25T04:25:23;6.38;;;1.35;;
79728;SDS011;69218;52.132;5.418;2023-04-25T04:27:51;7.65;;;1.30;;
79728;SDS011;69218;52.132;5.418;2023-04-25T04:30:23;7.97;;;1.20;;
79728;SDS011;69218;52.132;5.418;2023-04-25T04:32:51;5.15;;;0.90;;
79728;SDS011;69218;52.132;5.418;2023-04-25T04:35:18;4.90;;;1.00;;
79728;SDS011;69218;52.132;5.418;2023-04-25T04:37:44;7.85;;;1.08;;
79728;SDS011;69218;52.132;5.418;2023-04-25T04:40:12;4.22;;;1.38;;
79728;SDS011;69218;52.132;5.418;2023-04-25T04:42:41;9.23;;;1.40;;
79728;SDS011;69218;52.132;5.418;2023-04-25T04:45:17;3.58;;;0.85;;
79728;SDS011;69218;52.132;5.418;2023-04-25T04:47:44;5.68;;;0.90;;
79728;SDS011;69218;52.132;5.418;2023-04-25T04:50:11;5.88;;;1.45;;
79728;SDS011;69218;52.132;5.418;2023-04-25T04:52:38;6.38;;;1.10;;
79728;SDS011;69218;52.132;5.418;2023-04-25T04:55:05;5.45;;;1.63;;
79728;SDS011;69218;52.132;5.418;2023-04-25T04:57:32;4.70;;;1.10;;
79728;SDS011;69218;52.132;5.418;2023-04-25T04:59:59;2.75;;;0.75;;
79728;SDS011;69218;52.132;5.418;2023-04-25T05:02:25;3.55;;;0.77;;
79728;SDS011;69218;52.132;5.418;2023-04-25T05:04:55;8.10;;;0.80;;
79728;SDS011;69218;52.132;5.418;2023-04-25T05:07:23;3.30;;;0.88;;
79728;SDS011;69218;52.132;5.418;2023-04-25T05:09:49;3.72;;;0.82;;
79728;SDS011;69218;52.132;5.418;2023-04-25T05:12:16;4.68;;;0.88;;
79728;SDS011;69218;52.132;5.418;2023-04-25T05:14:42;5.38;;;0.80;;
79728;SDS011;69218;52.132;5.418;2023-04-25T05:17:09;4.68;;;0.95;;
79728;SDS011;69218;52.132;5.418;2023-04-25T05:19:36;5.72;;;1.60;;
79728;SDS011;69218;52.132;5.418;2023-04-25T05:22:02;3.90;;;0.90;;
79728;SDS011;69218;52.132;5.418;2023-04-25T05:24:29;2.00;;;0.52;;
79728;SDS011;69218;52.132;5.418;2023-04-25T05:26:57;5.38;;;0.77;;
79728;SDS011;69218;52.132;5.418;2023-04-25T05:29:24;4.40;;;0.88;;
79728;SDS011;69218;52.132;5.418;2023-04-25T05:31:50;6.10;;;0.77;;
79728;SDS011;69218;52.132;5.418;2023-04-25T05:34:17;3.40;;;0.63;;
79728;SDS011;69218;52.132;5.418;2023-04-25T05:36:43;4.18;;;1.00;;
79728;SDS011;69218;52.132;5.418;2023-04-25T05:39:09;4.70;;;1.25;;
79728;SDS011;69218;52.132;5.418;2023-04-25T05:41:36;5.07;;;0.88;;
79728;SDS011;69218;52.132;5.418;2023-04-25T05:44:02;3.70;;;0.63;;
79728;SDS011;69218;52.132;5.418;2023-04-25T05:46:29;3.58;;;0.60;;
79728;SDS011;69218;52.132;5.418;2023-04-25T05:48:55;4.55;;;0.80;;
79728;SDS011;69218;52.132;5.418;2023-04-25T05:51:22;5.20;;;0.85;;
79728;SDS011;69218;52.132;5.418;2023-04-25T05:53:48;5.18;;;0.80;;
79728;SDS011;69218;52.132;5.418;2023-04-25T05:56:15;3.70;;;0.80;;
79728;SDS011;69218;52.132;5.418;2023-04-25T05:58:44;2.85;;;1.00;;
79728;SDS011;69218;52.132;5.418;2023-04-25T06:01:11;8.32;;;0.95;;
79728;SDS011;69218;52.132;5.418;2023-04-25T06:03:38;5.50;;;0.95;;
79728;SDS011;69218;52.132;5.418;2023-04-25T06:06:05;3.33;;;0.80;;
79728;SDS011;69218;52.132;5.418;2023-04-25T06:08:32;4.80;;;1.00;;
79728;SDS011;69218;52.132;5.418;2023-04-25T06:10:58;4.20;;;0.77;;
79728;SDS011;69218;52.132;5.418;2023-04-25T06:13:25;5.45;;;1.00;;
79728;SDS011;69218;52.132;5.418;2023-04-25T06:15:51;3.63;;;0.82;;
79728;SDS011;69218;52.132;5.418;2023-04-25T06:18:18;4.35;;;1.58;;
79728;SDS011;69218;52.132;5.418;2023-04-25T06:20:44;1.63;;;0.63;;
79728;SDS011;69218;52.132;5.418;2023-04-25T06:23:10;5.80;;;1.00;;
79728;SDS011;69218;52.132;5.418;2023-04-25T06:25:37;6.07;;;0.95;;
79728;SDS011;69218;52.132;5.418;2023-04-25T06:28:03;4.47;;;0.90;;
79728;SDS011;69218;52.132;5.418;2023-04-25T06:30:30;3.35;;;0.80;;
79728;SDS011;69218;52.132;5.418;2023-04-25T06:32:56;3.33;;;0.63;;
79728;SDS011;69218;52.132;5.418;2023-04-25T06:35:23;1.80;;;0.60;;
79728;SDS011;69218;52.132;5.418;2023-04-25T06:37:49;7.43;;;0.95;;
79728;SDS011;69218;52.132;5.418;2023-04-25T06:40:16;6.20;;;0.88;;
79728;SDS011;69218;52.132;5.418;2023-04-25T06:42:43;6.68;;;1.13;;
79728;SDS011;69218;52.132;5.418;2023-04-25T06:45:10;5.32;;;1.00;;
79728;SDS011;69218;52.132;5.418;2023-04-25T06:47:36;3.80;;;0.70;;
79728;SDS011;69218;52.132;5.418;2023-04-25T06:50:03;6.15;;;1.08;;
79728;SDS011;69218;52.132;5.418;2023-04-25T06:52:30;6.95;;;0.93;;
79728;SDS011;69218;52.132;5.418;2023-04-25T06:54:57;5.28;;;0.80;;
79728;SDS011;69218;52.132;5.418;2023-04-25T06:57:24;5.13;;;0.77;;
79728;SDS011;69218;52.132;5.418;2023-04-25T06:59:50;2.72;;;0.60;;
79728;SDS011;69218;52.132;5.418;2023-04-25T07:02:17;3.92;;;0.77;;
79728;SDS011;69218;52.132;5.418;2023-04-25T07:04:43;2.50;;;0.70;;
79728;SDS011;69218;52.132;5.418;2023-04-25T07:07:12;5.65;;;1.13;;
79728;SDS011;69218;52.132;5.418;2023-04-25T07:09:38;3.60;;;0.65;;
79728;SDS011;69218;52.132;5.418;2023-04-25T07:12:05;3.47;;;0.77;;
79728;SDS011;69218;52.132;5.418;2023-04-25T07:14:31;3.88;;;0.60;;
79728;SDS011;69218;52.132;5.418;2023-04-25T07:16:58;3.13;;;0.90;;
79728;SDS011;69218;52.132;5.418;2023-04-25T07:19:24;3.72;;;0.68;;
79728;SDS011;69218;52.132;5.418;2023-04-25T07:21:52;3.72;;;0.98;;
79728;SDS011;69218;52.132;5.418;2023-04-25T07:24:19;5.43;;;0.60;;
79728;SDS011;69218;52.132;5.418;2023-04-25T07:26:45;2.80;;;0.60;;
79728;SDS011;69218;52.132;5.418;2023-04-25T07:29:12;3.70;;;0.80;;
79728;SDS011;69218;52.132;5.418;2023-04-25T07:31:38;4.65;;;0.70;;
79728;SDS011;69218;52.132;5.418;2023-04-25T07:34:05;3.92;;;0.55;;
79728;SDS011;69218;52.132;5.418;2023-04-25T07:36:32;3.28;;;0.73;;
79728;SDS011;69218;52.132;5.418;2023-04-25T07:38:59;1.92;;;0.65;;
79728;SDS011;69218;52.132;5.418;2023-04-25T07:41:26;3.97;;;0.57;;
79728;SDS011;69218;52.132;5.418;2023-04-25T07:43:52;4.40;;;0.63;;
79728;SDS011;69218;52.132;5.418;2023-04-25T07:46:19;4.35;;;0.68;;
79728;SDS011;69218;52.132;5.418;2023-04-25T07:48:46;3.67;;;0.63;;
79728;SDS011;69218;52.132;5.418;2023-04-25T07:51:12;5.25;;;0.55;;
79728;SDS011;69218;52.132;5.418;2023-04-25T07:53:38;2.08;;;0.25;;
79728;SDS011;69218;52.132;5.418;2023-04-25T07:56:05;6.68;;;0.90;;
79728;SDS011;69218;52.132;5.418;2023-04-25T07:58:32;2.78;;;0.40;;
79728;SDS011;69218;52.132;5.418;2023-04-25T08:00:58;4.47;;;0.68;;
79728;SDS011;69218;52.132;5.418;2023-04-25T08:03:25;3.08;;;0.40;;
79728;SDS011;69218;52.132;5.418;2023-04-25T08:05:52;4.05;;;0.70;;
79728;SDS011;69218;52.132;5.418;2023-04-25T08:08:19;3.97;;;0.90;;
79728;SDS011;69218;52.132;5.418;2023-04-25T08:10:45;4.63;;;0.57;;
79728;SDS011;69218;52.132;5.418;2023-04-25T08:13:14;3.13;;;0.50;;
79728;SDS011;69218;52.132;5.418;2023-04-25T08:15:40;2.85;;;0.65;;
79728;SDS011;69218;52.132;5.418;2023-04-25T08:18:07;2.67;;;0.40;;
79728;SDS011;69218;52.132;5.418;2023-04-25T08:20:34;3.53;;;0.63;;
79728;SDS011;69218;52.132;5.418;2023-04-25T08:23:00;4.85;;;0.93;;
79728;SDS011;69218;52.132;5.418;2023-04-25T08:25:27;3.97;;;0.50;;
79728;SDS011;69218;52.132;5.418;2023-04-25T08:27:54;4.30;;;0.50;;
79728;SDS011;69218;52.132;5.418;2023-04-25T08:30:20;2.83;;;0.40;;
79728;SDS011;69218;52.132;5.418;2023-04-25T08:32:47;3.05;;;0.63;;
79728;SDS011;69218;52.132;5.418;2023-04-25T08:35:14;3.10;;;0.45;;
79728;SDS011;69218;52.132;5.418;2023-04-25T08:37:40;3.65;;;0.52;;
79728;SDS011;69218;52.132;5.418;2023-04-25T08:40:07;1.67;;;0.40;;
79728;SDS011;69218;52.132;5.418;2023-04-25T08:42:41;2.50;;;0.50;;
79728;SDS011;69218;52.132;5.418;2023-04-25T08:45:09;1.73;;;0.30;;
79728;SDS011;69218;52.132;5.418;2023-04-25T08:47:36;1.75;;;0.40;;
79728;SDS011;69218;52.132;5.418;2023-04-25T08:50:06;4.85;;;0.45;;
79728;SDS011;69218;52.132;5.418;2023-04-25T08:52:37;2.75;;;0.40;;
79728;SDS011;69218;52.132;5.418;2023-04-25T08:55:06;4.72;;;0.38;;
79728;SDS011;69218;52.132;5.418;2023-04-25T09:00:02;2.42;;;0.63;;
79728;SDS011;69218;52.132;5.418;2023-04-25T09:02:29;3.10;;;0.50;;
79728;SDS011;69218;52.132;5.418;2023-04-25T09:04:56;6.57;;;0.40;;
79728;SDS011;69218;52.132;5.418;2023-04-25T09:07:25;4.30;;;0.77;;
79728;SDS011;69218;52.132;5.418;2023-04-25T09:09:52;3.22;;;0.43;;
79728;SDS011;69218;52.132;5.418;2023-04-25T09:12:18;3.90;;;0.60;;
79728;SDS011;69218;52.132;5.418;2023-04-25T09:15:00;3.17;;;0.77;;
79728;SDS011;69218;52.132;5.418;2023-04-25T09:17:29;4.53;;;0.80;;
79728;SDS011;69218;52.132;5.418;2023-04-25T09:19:55;3.25;;;0.40;;
79728;SDS011;69218;52.132;5.418;2023-04-25T09:22:32;3.70;;;0.60;;
79728;SDS011;69218;52.132;5.418;2023-04-25T09:24:58;5.38;;;0.50;;
79728;SDS011;69218;52.132;5.418;2023-04-25T09:27:29;2.85;;;0.65;;
79728;SDS011;69218;52.132;5.418;2023-04-25T09:29:57;3.78;;;0.43;;
79728;SDS011;69218;52.132;5.418;2023-04-25T09:32:28;5.18;;;0.57;;
79728;SDS011;69218;52.132;5.418;2023-04-25T09:34:55;2.83;;;0.47;;
79728;SDS011;69218;52.132;5.418;2023-04-25T09:37:26;3.53;;;0.55;;
79728;SDS011;69218;52.132;5.418;2023-04-25T09:39:55;2.30;;;0.52;;
79728;SDS011;69218;52.132;5.418;2023-04-25T09:42:23;2.47;;;0.40;;
79728;SDS011;69218;52.132;5.418;2023-04-25T09:44:51;5.55;;;0.40;;
79728;SDS011;69218;52.132;5.418;2023-04-25T09:47:20;3.05;;;0.50;;
79728;SDS011;69218;52.132;5.418;2023-04-25T09:49:50;4.50;;;0.45;;
79728;SDS011;69218;52.132;5.418;2023-04-25T09:52:19;3.38;;;0.50;;
79728;SDS011;69218;52.132;5.418;2023-04-25T09:54:50;2.88;;;0.70;;
79728;SDS011;69218;52.132;5.418;2023-04-25T09:57:21;2.45;;;0.30;;
79728;SDS011;69218;52.132;5.418;2023-04-25T09:59:50;1.80;;;0.40;;
79728;SDS011;69218;52.132;5.418;2023-04-25T10:02:21;1.95;;;0.38;;
79728;SDS011;69218;52.132;5.418;2023-04-25T10:04:54;2.10;;;0.30;;
79728;SDS011;69218;52.132;5.418;2023-04-25T10:07:22;1.20;;;0.20;;
79728;SDS011;69218;52.132;5.418;2023-04-25T10:09:58;2.30;;;0.30;;
79728;SDS011;69218;52.132;5.418;2023-04-25T10:12:27;1.90;;;0.40;;
79728;SDS011;69218;52.132;5.418;2023-04-25T10:14:54;3.67;;;0.47;;
79728;SDS011;69218;52.132;5.418;2023-04-25T10:17:21;2.75;;;0.30;;
79728;SDS011;69218;52.132;5.418;2023-04-25T10:19:48;1.63;;;0.40;;
79728;SDS011;69218;52.132;5.418;2023-04-25T10:22:20;1.88;;;0.32;;
79728;SDS011;69218;52.132;5.418;2023-04-25T10:24:59;3.30;;;0.50;;
79728;SDS011;69218;52.132;5.418;2023-04-25T10:27:30;1.52;;;0.30;;
79728;SDS011;69218;52.132;5.418;2023-04-25T10:30:03;2.25;;;0.38;;
79728;SDS011;69218;52.132;5.418;2023-04-25T10:32:32;3.30;;;0.50;;
79728;SDS011;69218;52.132;5.418;2023-04-25T10:35:09;3.53;;;0.50;;
79728;SDS011;69218;52.132;5.418;2023-04-25T10:40:34;1.48;;;0.32;;
79728;SDS011;69218;52.132;5.418;2023-04-25T10:45:55;3.53;;;0.43;;
79728;SDS011;69218;52.132;5.418;2023-04-25T10:48:28;2.80;;;0.20;;
79728;SDS011;69218;52.132;5.418;2023-04-25T10:51:39;1.50;;;0.32;;
79728;SDS011;69218;52.132;5.418;2023-04-25T10:58:49;1.77;;;0.30;;
79728;SDS011;69218;52.132;5.418;2023-04-25T11:01:21;3.65;;;0.43;;
79728;SDS011;69218;52.132;5.418;2023-04-25T11:03:56;4.63;;;0.47;;
79728;SDS011;69218;52.132;5.418;2023-04-25T11:06:37;3.03;;;0.45;;
79728;SDS011;69218;52.132;5.418;2023-04-25T11:09:11;1.63;;;0.50;;
79728;SDS011;69218;52.132;5.418;2023-04-25T11:11:41;3.03;;;0.52;;
79728;SDS011;69218;52.132;5.418;2023-04-25T11:14:07;4.60;;;0.70;;
79728;SDS011;69218;52.132;5.418;2023-04-25T11:16:34;7.38;;;0.73;;
79728;SDS011;69218;52.132;5.418;2023-04-25T11:19:02;3.33;;;0.63;;
79728;SDS011;69218;52.132;5.418;2023-04-25T11:21:30;2.65;;;0.60;;
79728;SDS011;69218;52.132;5.418;2023-04-25T11:23:57;4.00;;;0.40;;
79728;SDS011;69218;52.132;5.418;2023-04-25T11:26:25;3.88;;;0.80;;
79728;SDS011;69218;52.132;5.418;2023-04-25T11:28:56;1.73;;;0.45;;
79728;SDS011;69218;52.132;5.418;2023-04-25T11:31:25;1.33;;;0.50;;
79728;SDS011;69218;52.132;5.418;2023-04-25T11:33:53;3.33;;;0.70;;
79728;SDS011;69218;52.132;5.418;2023-04-25T11:38:48;1.45;;;0.43;;
79728;SDS011;69218;52.132;5.418;2023-04-25T11:41:17;4.03;;;0.65;;
79728;SDS011;69218;52.132;5.418;2023-04-25T11:43:44;5.25;;;1.02;;
79728;SDS011;69218;52.132;5.418;2023-04-25T11:46:10;3.22;;;0.40;;
79728;SDS011;69218;52.132;5.418;2023-04-25T11:48:38;3.25;;;0.55;;
79728;SDS011;69218;52.132;5.418;2023-04-25T11:51:08;2.90;;;0.55;;
79728;SDS011;69218;52.132;5.418;2023-04-25T11:53:35;3.13;;;0.43;;
79728;SDS011;69218;52.132;5.418;2023-04-25T11:56:02;2.45;;;0.40;;
79728;SDS011;69218;52.132;5.418;2023-04-25T11:58:53;3.85;;;0.77;;
79728;SDS011;69218;52.132;5.418;2023-04-25T12:01:28;3.67;;;0.60;;
79728;SDS011;69218;52.132;5.418;2023-04-25T12:04:16;3.33;;;0.70;;
79728;SDS011;69218;52.132;5.418;2023-04-25T12:06:48;4.50;;;0.57;;
79728;SDS011;69218;52.132;5.418;2023-04-25T12:09:21;3.20;;;0.47;;
79728;SDS011;69218;52.132;5.418;2023-04-25T12:11:55;3.83;;;0.30;;
79728;SDS011;69218;52.132;5.418;2023-04-25T12:14:27;4.25;;;0.75;;
79728;SDS011;69218;52.132;5.418;2023-04-25T12:16:56;2.80;;;0.45;;
79728;SDS011;69218;52.132;5.418;2023-04-25T12:19:24;2.95;;;0.50;;
79728;SDS011;69218;52.132;5.418;2023-04-25T12:21:52;4.90;;;0.57;;
79728;SDS011;69218;52.132;5.418;2023-04-25T12:24:25;4.28;;;1.27;;
79728;SDS011;69218;52.132;5.418;2023-04-25T12:29:25;2.90;;;0.57;;
79728;SDS011;69218;52.132;5.418;2023-04-25T12:31:59;4.78;;;0.63;;
79728;SDS011;69218;52.132;5.418;2023-04-25T12:34:28;3.53;;;0.40;;
79728;SDS011;69218;52.132;5.418;2023-04-25T12:36:54;1.27;;;0.35;;
79728;SDS011;69218;52.132;5.418;2023-04-25T12:39:22;1.20;;;0.50;;
79728;SDS011;69218;52.132;5.418;2023-04-25T12:41:51;2.33;;;0.47;;
79728;SDS011;69218;52.132;5.418;2023-04-25T12:44:20;2.90;;;0.45;;
79728;SDS011;69218;52.132;5.418;2023-04-25T12:46:47;3.70;;;0.50;;
79728;SDS011;69218;52.132;5.418;2023-04-25T12:49:14;2.83;;;0.60;;
79728;SDS011;69218;52.132;5.418;2023-04-25T12:51:44;1.45;;;0.28;;
79728;SDS011;69218;52.132;5.418;2023-04-25T12:54:11;3.17;;;0.60;;
79728;SDS011;69218;52.132;5.418;2023-04-25T12:56:37;3.60;;;0.60;;
79728;SDS011;69218;52.132;5.418;2023-04-25T12:59:04;2.78;;;0.32;;
79728;SDS011;69218;52.132;5.418;2023-04-25T13:01:30;3.08;;;0.45;;
79728;SDS011;69218;52.132;5.418;2023-04-25T13:04:01;3.17;;;0.50;;
79728;SDS011;69218;52.132;5.418;2023-04-25T13:06:28;5.18;;;0.55;;
79728;SDS011;69218;52.132;5.418;2023-04-25T13:08:56;2.83;;;0.52;;
79728;SDS011;69218;52.132;5.418;2023-04-25T13:11:23;1.83;;;0.63;;
79728;SDS011;69218;52.132;5.418;2023-04-25T13:13:49;2.92;;;0.57;;
79728;SDS011;69218;52.132;5.418;2023-04-25T13:16:16;1.92;;;0.30;;
79728;SDS011;69218;52.132;5.418;2023-04-25T13:18:43;1.60;;;0.30;;
79728;SDS011;69218;52.132;5.418;2023-04-25T13:21:09;5.53;;;0.90;;
79728;SDS011;69218;52.132;5.418;2023-04-25T13:23:37;3.03;;;0.50;;
79728;SDS011;69218;52.132;5.418;2023-04-25T13:26:04;1.80;;;0.43;;
79728;SDS011;69218;52.132;5.418;2023-04-25T13:28:30;3.65;;;0.50;;
79728;SDS011;69218;52.132;5.418;2023-04-25T13:30:57;2.58;;;0.50;;
79728;SDS011;69218;52.132;5.418;2023-04-25T13:33:24;2.63;;;0.40;;
79728;SDS011;69218;52.132;5.418;2023-04-25T13:35:50;4.88;;;0.70;;
79728;SDS011;69218;52.132;5.418;2023-04-25T13:38:20;1.75;;;0.68;;
79728;SDS011;69218;52.132;5.418;2023-04-25T13:40:48;3.35;;;0.70;;
79728;SDS011;69218;52.132;5.418;2023-04-25T13:43:15;4.18;;;0.73;;
79728;SDS011;69218;52.132;5.418;2023-04-25T13:45:42;3.90;;;0.50;;
79728;SDS011;69218;52.132;5.418;2023-04-25T13:48:08;2.47;;;0.32;;
79728;SDS011;69218;52.132;5.418;2023-04-25T13:50:35;2.72;;;0.55;;
79728;SDS011;69218;52.132;5.418;2023-04-25T13:53:02;2.75;;;0.50;;
79728;SDS011;69218;52.132;5.418;2023-04-25T13:55:28;2.17;;;0.75;;
79728;SDS011;69218;52.132;5.418;2023-04-25T13:57:55;2.17;;;0.50;;
79728;SDS011;69218;52.132;5.418;2023-04-25T14:00:21;2.60;;;0.70;;
79728;SDS011;69218;52.132;5.418;2023-04-25T14:02:48;2.47;;;0.50;;
79728;SDS011;69218;52.132;5.418;2023-04-25T14:05:16;4.55;;;0.50;;
79728;SDS011;69218;52.132;5.418;2023-04-25T14:07:42;3.55;;;0.77;;
79728;SDS011;69218;52.132;5.418;2023-04-25T14:10:09;2.85;;;0.70;;
79728;SDS011;69218;52.132;5.418;2023-04-25T14:12:35;2.17;;;0.77;;
79728;SDS011;69218;52.132;5.418;2023-04-25T14:15:02;2.88;;;0.60;;
79728;SDS011;69218;52.132;5.418;2023-04-25T14:17:29;2.83;;;0.50;;
79728;SDS011;69218;52.132;5.418;2023-04-25T14:19:56;3.30;;;0.55;;
79728;SDS011;69218;52.132;5.418;2023-04-25T14:22:22;3.53;;;0.80;;
79728;SDS011;69218;52.132;5.418;2023-04-25T14:24:48;3.25;;;0.55;;
79728;SDS011;69218;52.132;5.418;2023-04-25T14:27:15;2.20;;;0.50;;
79728;SDS011;69218;52.132;5.418;2023-04-25T14:29:41;2.00;;;0.77;;
79728;SDS011;69218;52.132;5.418;2023-04-25T14:32:08;1.60;;;0.52;;
79728;SDS011;69218;52.132;5.418;2023-04-25T14:34:35;2.90;;;0.90;;
79728;SDS011;69218;52.132;5.418;2023-04-25T14:37:01;1.85;;;0.52;;
79728;SDS011;69218;52.132;5.418;2023-04-25T14:39:28;3.47;;;0.70;;
79728;SDS011;69218;52.132;5.418;2023-04-25T14:41:54;3.38;;;0.60;;
79728;SDS011;69218;52.132;5.418;2023-04-25T14:44:22;3.33;;;0.60;;
79728;SDS011;69218;52.132;5.418;2023-04-25T14:46:48;1.95;;;0.60;;
79728;SDS011;69218;52.132;5.418;2023-04-25T14:49:17;3.60;;;0.52;;
79728;SDS011;69218;52.132;5.418;2023-04-25T14:51:44;2.70;;;0.40;;
79728;SDS011;69218;52.132;5.418;2023-04-25T14:54:10;2.97;;;0.43;;
79728;SDS011;69218;52.132;5.418;2023-04-25T14:56:38;2.60;;;0.85;;
79728;SDS011;69218;52.132;5.418;2023-04-25T14:59:04;2.42;;;0.52;;
79728;SDS011;69218;52.132;5.418;2023-04-25T15:01:31;5.45;;;1.25;;
79728;SDS011;69218;52.132;5.418;2023-04-25T15:03:57;2.15;;;0.75;;
79728;SDS011;69218;52.132;5.418;2023-04-25T15:06:25;6.18;;;0.50;;
79728;SDS011;69218;52.132;5.418;2023-04-25T15:08:53;1.75;;;0.50;;